Time;durP1;ratioP1;P1;durP2;ratioP2;P2;SDS_P1;SDS_P2;PMS_P1;PMS_P2;Temp;Humidity;BMP_temperature;BMP_pressure;BME280_temperature;BME280_humidity;BME280_pressure;Samples;Min_cycle;Max_cycle;Signal;HPM_P1;HPM_P2
2022/04/30 03:02:00;;;;;;;1.05;0.95;;;21.40;47.80;;;;;;5212161;23;44994;-69
2022/04/30 03:04:26;;;;;;;1.30;1.20;;;21.40;47.80;;;;;;4913929;28;45458;-69
2022/04/30 03:06:52;;;;;;;1.13;1.00;;;21.40;47.80;;;;;;4930823;28;45309;-69
2022/04/30 03:09:18;;;;;;;1.50;1.40;;;21.40;47.80;;;;;;4932979;28;45229;-69
2022/04/30 03:11:44;;;;;;;1.35;1.10;;;21.40;47.80;;;;;;4919111;28;45252;-70
2022/04/30 03:14:09;;;;;;;1.30;1.20;;;21.40;47.80;;;;;;4946918;28;45367;-69
2022/04/30 03:22:05;;;;;;;1.05;1.00;;;21.40;47.90;;;;;;4948132;28;45392;-69
2022/04/30 03:24:31;;;;;;;1.13;1.02;;;21.40;47.90;;;;;;4931134;28;45360;-69
2022/04/30 03:26:57;;;;;;;1.13;1.02;;;21.40;48.00;;;;;;4945294;28;45932;-69
2022/04/30 03:29:23;;;;;;;1.02;0.93;;;21.40;48.00;;;;;;4932290;28;45600;-69
2022/04/30 03:31:49;;;;;;;1.38;1.27;;;21.40;47.90;;;;;;4936817;28;44731;-68
2022/04/30 03:34:15;;;;;;;0.93;0.93;;;21.30;47.80;;;;;;4927752;28;45320;-69
2022/04/30 03:36:41;;;;;;;1.30;1.20;;;21.40;47.90;;;;;;4905565;28;46340;-69
2022/04/30 03:39:06;;;;;;;0.85;0.85;;;21.40;47.90;;;;;;4954815;28;45037;-69
2022/04/30 03:41:32;;;;;;;1.20;1.10;;;21.40;47.90;;;;;;4934511;28;45779;-69
2022/04/30 03:43:58;;;;;;;1.05;0.95;;;21.30;47.90;;;;;;4926365;28;47185;-69
2022/04/30 03:46:24;;;;;;;1.02;1.02;;;21.30;47.90;;;;;;4915954;28;46848;-70
2022/04/30 03:48:53;;;;;;;1.25;1.15;;;21.40;47.90;;;;;;4939555;28;45264;-70
2022/04/30 03:51:23;;;;;;;0.95;0.95;;;21.30;47.90;;;;;;4944174;28;44975;-70
2022/04/30 03:53:49;;;;;;;1.35;1.25;;;21.30;47.80;;;;;;4953755;28;45384;-70
2022/04/30 03:56:16;;;;;;;1.30;1.20;;;21.30;47.90;;;;;;4932699;28;46844;-70
2022/04/30 03:58:42;;;;;;;0.90;0.90;;;21.30;47.90;;;;;;4956062;28;45243;-70
2022/04/30 04:01:08;;;;;;;1.38;1.27;;;21.30;47.90;;;;;;4920125;28;45241;-70
2022/04/30 04:03:34;;;;;;;1.30;0.98;;;21.30;47.90;;;;;;4936476;28;45157;-70
2022/04/30 04:06:00;;;;;;;1.38;1.27;;;21.30;47.90;;;;;;4927320;28;46826;-70
2022/04/30 04:08:25;;;;;;;0.90;0.90;;;21.30;47.90;;;;;;4952702;28;44943;-70
2022/04/30 04:10:51;;;;;;;1.33;1.10;;;21.30;47.90;;;;;;4953905;28;45165;-70
2022/04/30 04:18:44;;;;;;;1.13;0.82;;;21.20;47.90;;;;;;4983329;28;45203;-70
2022/04/30 04:21:11;;;;;;;1.20;1.10;;;21.20;47.90;;;;;;4941688;28;45221;-70
2022/04/30 04:26:21;;;;;;;1.60;1.50;;;21.20;47.90;;;;;;4958213;28;45044;-70
2022/04/30 04:28:46;;;;;;;1.20;1.10;;;21.20;47.90;;;;;;4956410;28;44678;-70
2022/04/30 04:31:12;;;;;;;1.20;1.10;;;21.20;47.90;;;;;;4940093;28;45197;-70
2022/04/30 04:33:38;;;;;;;1.17;1.08;;;21.20;47.90;;;;;;4952203;28;45481;-70
2022/04/30 04:36:04;;;;;;;1.17;1.08;;;21.20;47.90;;;;;;4956021;28;45142;-70
2022/04/30 04:38:30;;;;;;;0.90;0.90;;;21.20;47.90;;;;;;4920473;28;44721;-70
2022/04/30 04:40:56;;;;;;;0.90;0.90;;;21.20;47.90;;;;;;4950863;28;45440;-70
2022/04/30 04:43:22;;;;;;;1.30;1.20;;;21.20;47.90;;;;;;4957166;28;44909;-68
2022/04/30 04:45:47;;;;;;;1.35;1.25;;;21.20;47.90;;;;;;4964286;28;45331;-69
2022/04/30 04:48:14;;;;;;;1.20;0.93;;;21.20;47.90;;;;;;4923597;28;45058;-69
2022/04/30 04:50:39;;;;;;;1.40;0.95;;;21.20;48.00;;;;;;4935348;28;45327;-69
2022/04/30 04:53:05;;;;;;;1.33;1.23;;;21.20;48.00;;;;;;4930522;28;45207;-69
2022/04/30 04:55:30;;;;;;;0.90;0.90;;;21.20;48.00;;;;;;4952229;28;45683;-69
2022/04/30 04:57:56;;;;;;;1.25;1.15;;;21.20;48.50;;;;;;4934235;28;45307;-69
2022/04/30 05:00:22;;;;;;;1.63;1.40;;;21.20;48.00;;;;;;4918716;28;44805;-69
2022/04/30 05:02:47;;;;;;;0.98;0.98;;;21.20;48.00;;;;;;4935828;28;45401;-69
2022/04/30 05:05:14;;;;;;;1.00;1.00;;;21.10;47.90;;;;;;4926162;28;47031;-69
2022/04/30 05:07:40;;;;;;;1.10;1.02;;;21.20;47.90;;;;;;4967193;28;45350;-69
2022/04/30 05:10:06;;;;;;;1.25;1.15;;;21.10;47.90;;;;;;4952671;28;44697;-69
2022/04/30 05:12:32;;;;;;;1.45;1.35;;;21.10;48.00;;;;;;4940607;28;45131;-69
2022/04/30 05:14:57;;;;;;;1.40;1.30;;;21.10;47.90;;;;;;4926040;28;46974;-70
2022/04/30 05:17:23;;;;;;;1.08;1.05;;;21.10;47.90;;;;;;4930496;28;45150;-70
2022/04/30 05:19:48;;;;;;;0.80;0.80;;;21.20;48.00;;;;;;4957904;28;45267;-70
2022/04/30 05:22:14;;;;;;;1.77;1.10;;;21.10;47.90;;;;;;4963405;28;45191;-70
2022/04/30 05:24:40;;;;;;;1.20;1.10;;;21.10;47.90;;;;;;4954496;28;45487;-69
2022/04/30 05:27:08;;;;;;;1.23;1.13;;;21.10;47.90;;;;;;4931328;28;45121;-69
2022/04/30 05:29:34;;;;;;;1.13;1.00;;;21.10;47.90;;;;;;4946162;28;45248;-69
2022/04/30 05:32:00;;;;;;;1.10;1.02;;;21.10;47.90;;;;;;4938591;28;45107;-68
2022/04/30 05:34:27;;;;;;;1.23;1.13;;;21.10;47.90;;;;;;4936813;28;45302;-68
2022/04/30 05:36:53;;;;;;;1.30;1.20;;;21.10;47.90;;;;;;4977441;28;45255;-69
2022/04/30 05:39:19;;;;;;;1.20;1.10;;;21.10;47.90;;;;;;4932614;28;44946;-69
2022/04/30 05:41:46;;;;;;;1.23;1.10;;;21.10;47.90;;;;;;4944569;28;45290;-69
2022/04/30 05:44:12;;;;;;;0.80;0.80;;;21.10;47.90;;;;;;4977436;28;45359;-69
2022/04/30 05:46:38;;;;;;;1.20;1.10;;;21.10;47.90;;;;;;4969131;28;44785;-69
2022/04/30 05:49:03;;;;;;;1.20;1.10;;;21.10;47.90;;;;;;4956800;28;45381;-70
2022/04/30 05:51:29;;;;;;;1.30;1.20;;;21.10;47.90;;;;;;4944522;28;45070;-70
2022/04/30 05:53:55;;;;;;;1.33;1.23;;;21.10;48.00;;;;;;4976095;28;45372;-69
2022/04/30 05:56:20;;;;;;;1.00;1.00;;;21.10;47.90;;;;;;4942063;28;45105;-69
2022/04/30 05:58:46;;;;;;;1.20;1.10;;;21.10;47.90;;;;;;4955524;28;46051;-70
2022/04/30 06:01:12;;;;;;;2.25;1.23;;;21.10;47.90;;;;;;4971972;28;45236;-70
2022/04/30 06:03:39;;;;;;;1.33;1.23;;;21.10;47.90;;;;;;4937771;28;45311;-70
2022/04/30 06:06:05;;;;;;;1.40;1.30;;;21.10;47.80;;;;;;4938112;28;44728;-70
2022/04/30 06:08:31;;;;;;;1.00;1.00;;;21.10;47.90;;;;;;4953043;28;45478;-70
2022/04/30 06:10:57;;;;;;;1.35;1.25;;;21.10;47.90;;;;;;4932744;28;44845;-70
2022/04/30 06:13:23;;;;;;;1.25;1.15;;;21.10;47.90;;;;;;4920137;28;45187;-69
2022/04/30 06:15:48;;;;;;;1.13;1.02;;;21.10;47.90;;;;;;4947809;28;44780;-70
2022/04/30 06:18:15;;;;;;;1.20;1.10;;;21.10;47.90;;;;;;4951385;28;44976;-70
2022/04/30 06:20:41;;;;;;;2.20;1.48;;;21.10;47.90;;;;;;4925254;28;45319;-70
2022/04/30 06:23:06;;;;;;;1.23;1.13;;;21.10;47.90;;;;;;4948979;28;45608;-70
2022/04/30 06:25:32;;;;;;;1.40;1.30;;;21.10;47.80;;;;;;4957550;28;45400;-70
2022/04/30 06:28:01;;;;;;;1.13;1.02;;;21.10;47.80;;;;;;4952509;28;45127;-70
2022/04/30 06:30:27;;;;;;;1.30;1.20;;;21.10;47.80;;;;;;4933137;28;45413;-69
2022/04/30 06:32:52;;;;;;;1.30;1.20;;;21.10;47.80;;;;;;4947130;28;45392;-70
2022/04/30 06:35:18;;;;;;;1.67;1.58;;;21.20;47.80;;;;;;4973891;28;44645;-69
2022/04/30 06:37:43;;;;;;;1.30;1.20;;;21.20;47.80;;;;;;4957744;28;45434;-70
2022/04/30 06:40:10;;;;;;;1.40;1.30;;;21.20;47.80;;;;;;4939941;28;45313;-69
2022/04/30 06:42:42;;;;;;;1.38;1.27;;;21.20;47.70;;;;;;4943137;28;45657;-70
2022/04/30 06:45:11;;;;;;;1.73;1.15;;;21.20;47.70;;;;;;4956659;28;45248;-70
2022/04/30 06:47:36;;;;;;;1.02;0.90;;;21.20;47.70;;;;;;4952968;28;45500;-70
2022/04/30 06:50:03;;;;;;;1.15;1.05;;;21.20;47.70;;;;;;4942348;28;45337;-70
2022/04/30 06:52:30;;;;;;;1.23;1.15;;;21.20;47.70;;;;;;4953148;28;45434;-69
2022/04/30 06:57:42;;;;;;;1.10;1.00;;;21.20;47.70;;;;;;4947909;28;45354;-70
2022/04/30 07:01:25;;;;;;;1.30;1.20;;;21.20;47.70;;;;;;4960508;28;45112;-70
2022/04/30 07:02:57;;;;;;;1.17;1.08;;;21.20;47.70;;;;;;4949251;28;46620;-70
2022/04/30 07:05:22;;;;;;;1.20;1.00;;;21.20;47.70;;;;;;4954598;28;45326;-70
2022/04/30 07:07:48;;;;;;;1.40;1.30;;;21.20;47.70;;;;;;4953451;28;44711;-69
2022/04/30 07:10:14;;;;;;;1.35;1.25;;;21.20;47.70;;;;;;4962067;28;45490;-69
2022/04/30 07:12:39;;;;;;;1.13;1.02;;;21.20;47.70;;;;;;4924900;28;45562;-70
2022/04/30 07:15:06;;;;;;;1.30;1.20;;;21.20;47.70;;;;;;4944550;28;45384;-70
2022/04/30 07:17:31;;;;;;;1.30;1.20;;;21.20;47.70;;;;;;4953780;28;44767;-70
2022/04/30 07:19:57;;;;;;;1.50;1.10;;;21.20;47.70;;;;;;4946180;28;44749;-70
2022/04/30 07:22:22;;;;;;;1.63;1.10;;;21.20;47.70;;;;;;4957210;28;46860;-70
2022/04/30 07:24:48;;;;;;;1.38;1.27;;;21.20;47.70;;;;;;4970157;28;45256;-70
2022/04/30 07:27:14;;;;;;;1.40;1.30;;;21.20;47.60;;;;;;4941470;28;45258;-70
2022/04/30 07:29:39;;;;;;;2.05;1.40;;;21.20;47.50;;;;;;4928692;28;45398;-70
2022/04/30 07:32:08;;;;;;;1.40;1.30;;;21.30;47.50;;;;;;4923023;28;46329;-70
2022/04/30 07:34:35;;;;;;;1.40;1.30;;;21.30;47.60;;;;;;4945438;28;45553;-70
2022/04/30 07:37:00;;;;;;;1.20;1.10;;;21.30;47.70;;;;;;4923600;28;45117;-70
2022/04/30 07:39:26;;;;;;;1.25;1.15;;;21.30;47.60;;;;;;4952963;28;45227;-69
2022/04/30 07:41:55;;;;;;;1.35;1.25;;;21.30;47.50;;;;;;4918577;28;45582;-70
2022/04/30 07:44:22;;;;;;;2.38;1.45;;;21.30;47.50;;;;;;4935695;28;45370;-69
2022/04/30 07:46:47;;;;;;;1.77;1.40;;;21.30;47.50;;;;;;4935376;28;46067;-70
2022/04/30 07:49:13;;;;;;;1.30;1.20;;;21.30;47.40;;;;;;4916964;28;45476;-70
2022/04/30 07:51:59;;;;;;;1.50;1.40;;;21.40;47.50;;;;;;4945807;28;46335;-69
2022/04/30 07:54:25;;;;;;;1.40;1.30;;;21.30;47.40;;;;;;4939462;28;45294;-70
2022/04/30 07:56:57;;;;;;;1.58;1.40;;;21.40;47.40;;;;;;4946459;28;45668;-70
2022/04/30 07:59:23;;;;;;;1.27;1.17;;;21.40;47.40;;;;;;4928498;28;45338;-71
2022/04/30 08:01:49;;;;;;;1.67;1.40;;;21.40;47.40;;;;;;4913978;28;46694;-70
2022/04/30 08:04:14;;;;;;;1.30;1.20;;;21.40;47.40;;;;;;4947260;28;45196;-69
2022/04/30 08:06:40;;;;;;;1.45;1.35;;;21.40;47.30;;;;;;4911484;28;45460;-69
2022/04/30 08:09:06;;;;;;;1.60;1.50;;;21.40;47.30;;;;;;4962980;28;45714;-69
2022/04/30 08:11:31;;;;;;;1.33;1.23;;;21.40;47.30;;;;;;4944129;28;45366;-70
2022/04/30 08:13:57;;;;;;;1.50;1.33;;;21.40;47.30;;;;;;4943052;28;45727;-70
2022/04/30 08:16:23;;;;;;;1.27;1.17;;;21.40;47.30;;;;;;4923297;28;45372;-70
2022/04/30 08:18:48;;;;;;;1.40;1.30;;;21.50;47.30;;;;;;4941724;28;45425;-69
2022/04/30 08:21:14;;;;;;;1.20;1.10;;;21.50;47.30;;;;;;4944374;28;46340;-70
2022/04/30 08:23:39;;;;;;;1.45;1.25;;;21.40;47.30;;;;;;4944398;28;45696;-70
2022/04/30 08:26:05;;;;;;;1.30;1.20;;;21.50;47.40;;;;;;4944029;28;46769;-70
2022/04/30 08:28:31;;;;;;;1.17;1.08;;;21.50;47.40;;;;;;4926204;28;45881;-69
2022/04/30 08:30:57;;;;;;;1.55;1.42;;;21.50;47.40;;;;;;4925369;28;46970;-70
2022/04/30 08:33:22;;;;;;;1.30;1.20;;;21.40;47.30;;;;;;4931975;28;45940;-69
2022/04/30 08:35:48;;;;;;;1.27;1.15;;;21.50;47.30;;;;;;4927615;28;45355;-70
2022/04/30 08:38:14;;;;;;;1.63;1.52;;;21.50;47.40;;;;;;4940768;28;45661;-70
2022/04/30 08:40:41;;;;;;;1.77;1.45;;;21.50;47.30;;;;;;4940834;28;46114;-70
2022/04/30 08:43:08;;;;;;;1.25;1.10;;;21.50;47.40;;;;;;4911476;28;45506;-70
2022/04/30 08:45:36;;;;;;;1.40;1.20;;;21.50;47.40;;;;;;4942302;28;44759;-70
2022/04/30 08:48:02;;;;;;;1.35;1.25;;;21.50;47.30;;;;;;4928093;28;45540;-69
2022/04/30 08:50:29;;;;;;;1.58;1.35;;;21.50;47.30;;;;;;4905919;28;46961;-70
2022/04/30 08:52:55;;;;;;;1.55;1.30;;;21.50;47.40;;;;;;4909871;28;45248;-71
2022/04/30 08:55:21;;;;;;;1.35;1.02;;;21.50;47.30;;;;;;4919556;28;44986;-70
2022/04/30 08:57:47;;;;;;;1.35;1.05;;;21.50;47.40;;;;;;4918847;28;45262;-70
2022/04/30 09:00:13;;;;;;;1.90;1.23;;;21.50;47.30;;;;;;4939975;28;46038;-70
2022/04/30 09:02:58;;;;;;;1.45;1.30;;;21.50;47.30;;;;;;4959267;28;45322;-70
2022/04/30 09:05:37;;;;;;;1.65;1.20;;;21.50;47.30;;;;;;4932444;28;45580;-70
2022/04/30 09:08:04;;;;;;;1.25;1.15;;;21.60;47.30;;;;;;4947357;28;45649;-70
2022/04/30 09:10:31;;;;;;;1.20;1.10;;;21.50;47.80;;;;;;4942780;28;45374;-70
2022/04/30 09:13:15;;;;;;;1.90;1.50;;;21.60;47.30;;;;;;4928072;28;45304;-69
2022/04/30 09:15:44;;;;;;;2.08;1.27;;;21.60;47.20;;;;;;4959855;28;45450;-69
2022/04/30 09:18:11;;;;;;;1.27;1.17;;;21.60;47.20;;;;;;4947856;28;45305;-69
2022/04/30 09:20:47;;;;;;;1.30;1.20;;;21.60;47.30;;;;;;4930586;28;45767;-69
2022/04/30 09:23:23;;;;;;;1.77;1.67;;;21.60;47.20;;;;;;4961946;28;45541;-70
2022/04/30 09:25:56;;;;;;;1.17;1.08;;;21.60;47.20;;;;;;4927930;28;45289;-70
2022/04/30 09:28:22;;;;;;;;;;;21.60;47.20;;;;;;4945491;28;46154;-70
2022/04/30 09:30:48;;;;;;;1.30;1.20;;;21.60;47.20;;;;;;4961755;28;46390;-70
2022/04/30 09:33:13;;;;;;;1.40;1.20;;;21.60;47.30;;;;;;4948739;28;45088;-70
2022/04/30 09:38:26;;;;;;;1.30;1.20;;;21.60;47.20;;;;;;4940096;28;45746;-70
2022/04/30 09:40:56;;;;;;;1.42;1.33;;;21.60;47.20;;;;;;4945018;28;45095;-70
2022/04/30 09:43:32;;;;;;;1.25;1.15;;;21.60;47.20;;;;;;4949934;28;45933;-70
2022/04/30 09:45:59;;;;;;;1.52;1.02;;;21.60;47.10;;;;;;4947913;28;45364;-71
2022/04/30 09:54:02;;;;;;;1.67;1.40;;;21.60;47.10;;;;;;4953138;28;45700;-70
2022/04/30 09:56:37;;;;;;;1.67;1.17;;;21.60;47.10;;;;;;4965711;28;45691;-71
2022/04/30 09:59:08;;;;;;;1.60;1.27;;;21.70;47.10;;;;;;4949114;28;45918;-70
2022/04/30 10:01:34;;;;;;;1.65;1.20;;;21.70;47.10;;;;;;4927771;28;47555;-70
2022/04/30 10:04:07;;;;;;;1.60;1.50;;;21.70;47.10;;;;;;4919382;28;44915;-70
2022/04/30 10:06:34;;;;;;;1.47;1.37;;;21.70;47.10;;;;;;4946072;28;45427;-70
2022/04/30 10:09:00;;;;;;;1.58;1.27;;;21.70;47.10;;;;;;4915717;28;44746;-70
2022/04/30 10:12:04;;;;;;;1.30;1.20;;;21.70;47.10;;;;;;4933376;28;45574;-70
2022/04/30 10:15:07;;;;;;;1.42;1.33;;;21.70;47.00;;;;;;4947845;28;44962;-70
2022/04/30 10:17:38;;;;;;;1.50;1.40;;;21.70;47.00;;;;;;4949843;28;45546;-70
2022/04/30 10:20:17;;;;;;;1.33;1.23;;;21.70;47.10;;;;;;4929089;28;45684;-68
2022/04/30 10:22:53;;;;;;;1.30;1.20;;;21.70;47.00;;;;;;4915693;28;46823;-68
2022/04/30 10:25:36;;;;;;;1.52;1.27;;;21.70;47.00;;;;;;4913793;28;44773;-69
2022/04/30 10:28:08;;;;;;;1.40;1.13;;;21.80;47.00;;;;;;4903331;28;45410;-68
2022/04/30 10:30:38;;;;;;;1.40;1.30;;;21.80;47.10;;;;;;4945421;28;44892;-68
2022/04/30 10:33:06;;;;;;;1.30;1.20;;;21.80;47.00;;;;;;4933201;28;45726;-69
2022/04/30 10:35:43;;;;;;;1.45;1.35;;;21.80;47.00;;;;;;4916203;28;45422;-68
2022/04/30 10:38:19;;;;;;;1.85;1.60;;;21.80;46.90;;;;;;4950667;28;45384;-68
2022/04/30 10:40:48;;;;;;;1.27;1.17;;;21.80;47.00;;;;;;4943694;28;45144;-69
2022/04/30 10:43:18;;;;;;;1.38;1.27;;;21.90;47.00;;;;;;4946410;28;45373;-69
2022/04/30 10:45:44;;;;;;;1.38;1.27;;;21.80;46.90;;;;;;4928006;28;45244;-69
2022/04/30 10:48:10;;;;;;;1.45;1.35;;;21.80;46.90;;;;;;4932637;28;45508;-68
2022/04/30 10:50:35;;;;;;;1.65;1.40;;;21.90;46.90;;;;;;4930340;28;44769;-69
2022/04/30 10:53:01;;;;;;;1.30;1.20;;;21.90;46.90;;;;;;4945423;28;45785;-69
2022/04/30 10:55:27;;;;;;;1.30;1.20;;;21.90;46.90;;;;;;4930468;28;45507;-69
2022/04/30 10:57:53;;;;;;;1.50;1.40;;;21.90;46.90;;;;;;4942275;28;45515;-69
2022/04/30 11:00:21;;;;;;;1.38;1.25;;;21.90;46.90;;;;;;4927526;28;45710;-69
2022/04/30 11:02:47;;;;;;;1.50;1.40;;;21.90;46.90;;;;;;4945207;28;46107;-70
2022/04/30 11:05:22;;;;;;;2.40;1.77;;;21.90;46.90;;;;;;4931380;28;45431;-70
2022/04/30 11:07:48;;;;;;;1.33;1.23;;;21.90;47.60;;;;;;4927373;28;45646;-70
2022/04/30 11:10:14;;;;;;;1.35;1.25;;;21.90;46.90;;;;;;4926059;28;45395;-69
2022/04/30 11:12:39;;;;;;;1.45;1.30;;;21.90;46.90;;;;;;4925144;28;45520;-69
2022/04/30 11:15:05;;;;;;;1.42;1.33;;;21.90;46.90;;;;;;4943787;28;45871;-69
2022/04/30 11:17:44;;;;;;;1.45;1.15;;;21.90;46.90;;;;;;4948047;28;45048;-69
2022/04/30 11:20:10;;;;;;;1.60;1.35;;;21.90;46.90;;;;;;4948405;28;44997;-70
2022/04/30 11:22:36;;;;;;;1.35;1.25;;;21.90;47.00;;;;;;4932134;28;45385;-69
2022/04/30 11:25:01;;;;;;;1.42;1.33;;;21.90;46.90;;;;;;4949034;28;45276;-69
2022/04/30 11:27:31;;;;;;;1.60;1.50;;;21.90;46.90;;;;;;4916216;28;45479;-70
2022/04/30 11:29:57;;;;;;;1.50;1.40;;;21.90;47.00;;;;;;4948138;28;45507;-70
2022/04/30 11:32:24;;;;;;;1.40;1.30;;;21.90;46.90;;;;;;4947971;28;47052;-69
2022/04/30 11:34:50;;;;;;;1.42;1.33;;;21.90;46.90;;;;;;4949172;28;45550;-70
2022/04/30 11:37:15;;;;;;;1.65;1.35;;;21.90;46.80;;;;;;4943514;28;45253;-70
2022/04/30 11:39:41;;;;;;;1.40;1.30;;;21.90;46.90;;;;;;4916997;28;45268;-69
2022/04/30 11:42:07;;;;;;;1.15;1.05;;;21.90;46.80;;;;;;4900879;28;47296;-69
2022/04/30 11:44:33;;;;;;;1.65;1.48;;;21.90;46.90;;;;;;4965545;28;45530;-69
2022/04/30 11:46:58;;;;;;;1.40;1.30;;;21.90;46.80;;;;;;4946619;28;45711;-70
2022/04/30 11:49:27;;;;;;;2.10;1.60;;;21.90;46.80;;;;;;4931666;28;45276;-70
2022/04/30 11:51:56;;;;;;;1.48;1.38;;;21.90;46.80;;;;;;4913101;28;45741;-68
2022/04/30 11:54:25;;;;;;;1.55;1.45;;;21.90;46.80;;;;;;4932012;28;45264;-69
2022/04/30 11:56:52;;;;;;;1.55;1.45;;;21.90;46.80;;;;;;4947394;28;45623;-70
2022/04/30 11:59:37;;;;;;;1.40;1.30;;;21.90;46.80;;;;;;4933281;28;45911;-68
2022/04/30 12:02:04;;;;;;;1.60;1.50;;;22.00;46.70;;;;;;4900948;28;45377;-69
2022/04/30 12:04:34;;;;;;;1.40;1.30;;;21.90;46.80;;;;;;4967952;28;45472;-69
2022/04/30 12:07:01;;;;;;;1.60;1.50;;;21.90;46.70;;;;;;4921196;28;45180;-69
2022/04/30 12:09:31;;;;;;;1.65;1.40;;;22.00;46.80;;;;;;4932513;28;45512;-69
2022/04/30 12:11:57;;;;;;;1.20;1.10;;;22.00;46.70;;;;;;4898326;28;46681;-70
2022/04/30 12:14:24;;;;;;;1.65;1.50;;;22.00;46.70;;;;;;4916070;28;45816;-69
2022/04/30 12:16:50;;;;;;;1.58;1.25;;;22.00;46.70;;;;;;4931689;28;45175;-69
2022/04/30 12:25:09;;;;;;;1.42;1.30;;;21.90;46.60;;;;;;4946407;28;45499;-69
2022/04/30 12:27:39;;;;;;;1.40;1.30;;;22.00;46.70;;;;;;4946987;28;45061;-69
2022/04/30 12:30:14;;;;;;;1.60;1.50;;;21.90;46.70;;;;;;4949012;28;45478;-69
2022/04/30 12:33:00;;;;;;;1.40;1.30;;;21.90;46.70;;;;;;4949198;28;45903;-69
2022/04/30 12:35:27;;;;;;;1.40;1.30;;;22.00;46.60;;;;;;4934154;28;45111;-69
2022/04/30 12:38:13;;;;;;;1.20;1.10;;;21.90;46.70;;;;;;4964592;28;46456;-69
2022/04/30 12:40:42;;;;;;;3.50;1.38;;;22.00;46.60;;;;;;4932906;28;45214;-70
2022/04/30 12:43:08;;;;;;;1.40;1.30;;;21.90;46.70;;;;;;4933456;28;47091;-69
2022/04/30 12:45:33;;;;;;;1.38;1.27;;;21.90;46.70;;;;;;4947615;28;45065;-70
2022/04/30 12:48:00;;;;;;;1.40;1.30;;;21.90;46.70;;;;;;4933077;28;45517;-69
2022/04/30 12:50:26;;;;;;;1.50;1.40;;;21.90;46.70;;;;;;4943377;28;44964;-69
2022/04/30 12:52:52;;;;;;;1.63;1.52;;;21.90;46.70;;;;;;4932636;28;47191;-69
2022/04/30 12:55:18;;;;;;;1.70;1.60;;;21.90;46.70;;;;;;4951692;28;45285;-70
2022/04/30 12:57:45;;;;;;;1.35;1.25;;;21.90;46.70;;;;;;4946944;28;45324;-69
2022/04/30 13:00:12;;;;;;;1.58;1.48;;;21.90;46.70;;;;;;4948712;28;44889;-69
2022/04/30 13:02:39;;;;;;;1.23;1.13;;;22.00;46.70;;;;;;4916111;28;46658;-69
2022/04/30 13:05:14;;;;;;;1.20;1.10;;;22.00;46.70;;;;;;4931167;28;46010;-69
2022/04/30 13:07:41;;;;;;;2.13;1.20;;;21.90;46.60;;;;;;4934098;28;45448;-70
2022/04/30 13:15:36;;;;;;;1.55;1.30;;;21.90;46.70;;;;;;4952364;28;45472;-69
2022/04/30 13:18:02;;;;;;;1.30;1.20;;;21.90;46.70;;;;;;4936485;28;45566;-69
2022/04/30 13:20:29;;;;;;;1.60;1.48;;;21.90;46.70;;;;;;4949508;28;45215;-70
2022/04/30 13:22:56;;;;;;;1.40;1.30;;;21.90;46.70;;;;;;4934656;28;45378;-69
2022/04/30 13:25:26;;;;;;;1.15;1.05;;;21.90;46.80;;;;;;4934983;28;45435;-70
2022/04/30 13:27:52;;;;;;;1.85;1.45;;;21.90;46.70;;;;;;4968812;28;45077;-70
2022/04/30 13:30:20;;;;;;;1.40;1.30;;;21.90;46.80;;;;;;4932974;28;45616;-70
2022/04/30 13:32:46;;;;;;;1.50;1.38;;;21.90;46.80;;;;;;4920048;28;45593;-70
2022/04/30 13:35:13;;;;;;;1.70;1.60;;;21.90;46.80;;;;;;4915853;28;44972;-68
2022/04/30 13:37:41;;;;;;;1.50;1.40;;;21.90;46.80;;;;;;4949992;28;44800;-69
2022/04/30 13:40:10;;;;;;;1.48;1.38;;;21.90;46.80;;;;;;4949969;28;45594;-69
2022/04/30 13:42:37;;;;;;;1.40;1.30;;;21.90;46.80;;;;;;4927918;28;47468;-68
2022/04/30 13:45:03;;;;;;;1.70;1.60;;;21.90;46.80;;;;;;4935279;28;44721;-69
2022/04/30 13:47:29;;;;;;;1.35;1.25;;;21.90;46.80;;;;;;4923331;28;45382;-69
2022/04/30 13:49:55;;;;;;;1.55;1.17;;;21.90;46.80;;;;;;4903507;28;45638;-70
2022/04/30 13:52:21;;;;;;;1.40;1.25;;;21.90;47.40;;;;;;4969184;28;45204;-70
2022/04/30 13:54:47;;;;;;;1.42;1.33;;;22.00;46.90;;;;;;4933878;28;45357;-70
2022/04/30 13:57:14;;;;;;;1.60;1.50;;;21.90;46.90;;;;;;4921276;28;45450;-69
2022/04/30 13:59:40;;;;;;;1.50;1.40;;;21.90;46.90;;;;;;4922796;28;45594;-70
2022/04/30 14:02:06;;;;;;;1.73;1.38;;;21.90;46.90;;;;;;4919274;28;45768;-69
2022/04/30 14:04:34;;;;;;;1.45;1.35;;;21.90;46.90;;;;;;4918569;28;45371;-69
2022/04/30 14:07:00;;;;;;;1.30;1.20;;;21.90;46.90;;;;;;4932094;28;45476;-69
2022/04/30 14:09:25;;;;;;;1.38;1.27;;;21.90;46.90;;;;;;4920817;28;44750;-69
2022/04/30 14:11:51;;;;;;;1.60;1.27;;;21.90;46.90;;;;;;4933198;28;48421;-69
2022/04/30 14:18:15;;;;;;;1.40;1.30;;;21.90;47.00;;;;;;4955528;28;45517;-69
2022/04/30 14:19:53;;;;;;;1.70;1.60;;;21.90;47.00;;;;;;4940705;28;45179;-68
2022/04/30 14:22:20;;;;;;;1.50;1.40;;;21.90;47.00;;;;;;4950986;28;45807;-69
2022/04/30 14:24:49;;;;;;;1.60;1.50;;;21.90;47.00;;;;;;4955031;28;45184;-69
2022/04/30 14:27:14;;;;;;;1.48;1.38;;;21.90;47.00;;;;;;4938442;28;44841;-69
2022/04/30 14:29:42;;;;;;;1.35;1.25;;;21.90;47.00;;;;;;4934846;28;44926;-69
2022/04/30 14:32:09;;;;;;;1.35;1.25;;;21.90;47.00;;;;;;4958093;28;45499;-69
2022/04/30 14:34:34;;;;;;;1.35;1.25;;;21.90;47.00;;;;;;4954675;28;45494;-69
2022/04/30 14:37:00;;;;;;;1.42;1.33;;;21.90;47.00;;;;;;4960707;28;45247;-69
2022/04/30 14:39:25;;;;;;;1.42;1.33;;;21.90;47.00;;;;;;4950449;28;45217;-69
2022/04/30 14:41:51;;;;;;;1.50;1.40;;;21.90;47.00;;;;;;4946466;28;46103;-69
2022/04/30 14:44:16;;;;;;;1.60;1.48;;;21.90;47.10;;;;;;4918192;28;44796;-70
2022/04/30 14:46:42;;;;;;;1.15;1.08;;;21.90;47.00;;;;;;4904451;28;45631;-70
2022/04/30 14:49:08;;;;;;;1.48;1.38;;;21.90;47.00;;;;;;4917056;28;45499;-70
2022/04/30 14:51:33;;;;;;;2.03;1.55;;;21.90;47.00;;;;;;4972784;28;45540;-70
2022/04/30 14:53:59;;;;;;;1.35;1.25;;;21.90;47.00;;;;;;4977117;28;45184;-70
2022/04/30 14:56:25;;;;;;;1.50;1.40;;;21.90;47.10;;;;;;4956682;28;44766;-70
2022/04/30 14:58:50;;;;;;;1.60;1.50;;;21.90;47.00;;;;;;4941532;28;45220;-70
2022/04/30 15:01:16;;;;;;;1.63;1.52;;;21.90;47.00;;;;;;4923860;28;46988;-70
2022/04/30 15:03:44;;;;;;;1.40;1.30;;;21.90;47.10;;;;;;4957669;28;45358;-70
2022/04/30 15:06:10;;;;;;;1.63;1.35;;;21.90;47.10;;;;;;4956595;28;45449;-70
2022/04/30 15:08:36;;;;;;;1.48;1.13;;;21.90;47.10;;;;;;4948347;28;45130;-70
2022/04/30 15:11:02;;;;;;;1.73;1.60;;;21.90;47.10;;;;;;4941556;28;46115;-70
2022/04/30 15:13:28;;;;;;;1.50;1.40;;;21.90;47.10;;;;;;4941170;28;45221;-69
2022/04/30 15:15:54;;;;;;;1.42;1.33;;;21.90;47.10;;;;;;4949804;28;45466;-70
2022/04/30 15:18:19;;;;;;;1.77;1.42;;;21.80;47.00;;;;;;4955197;28;45478;-69
2022/04/30 15:20:45;;;;;;;1.40;1.30;;;21.80;47.10;;;;;;4950251;28;45468;-69
2022/04/30 15:23:11;;;;;;;1.50;1.40;;;21.80;47.10;;;;;;4921280;28;45233;-70
2022/04/30 15:25:37;;;;;;;1.70;1.42;;;21.80;47.70;;;;;;4903089;28;44675;-69
2022/04/30 15:28:03;;;;;;;1.58;1.48;;;21.80;47.10;;;;;;4952890;28;45430;-69
2022/04/30 15:30:29;;;;;;;1.50;1.40;;;21.80;47.10;;;;;;4926872;28;47028;-69
2022/04/30 15:32:54;;;;;;;1.58;1.27;;;21.80;47.00;;;;;;4958938;28;45148;-69
2022/04/30 15:35:20;;;;;;;1.50;1.40;;;21.80;47.10;;;;;;4941846;28;45407;-69
2022/04/30 15:37:47;;;;;;;1.40;1.30;;;21.80;47.10;;;;;;4947420;28;45615;-69
2022/04/30 15:40:12;;;;;;;1.63;1.52;;;21.80;47.10;;;;;;4938164;28;46901;-69
2022/04/30 15:42:38;;;;;;;1.55;1.30;;;21.80;47.10;;;;;;4958612;28;45315;-69
2022/04/30 15:45:05;;;;;;;1.90;1.80;;;21.80;47.10;;;;;;4951732;28;45341;-69
2022/04/30 15:52:59;;;;;;;1.38;1.27;;;21.80;47.10;;;;;;4943867;28;45311;-69
2022/04/30 15:55:25;;;;;;;1.58;1.48;;;21.80;47.00;;;;;;4948838;28;45149;-70
2022/04/30 15:57:51;;;;;;;1.30;1.20;;;21.80;47.10;;;;;;4955620;28;45336;-69
2022/04/30 16:00:16;;;;;;;1.48;1.35;;;21.80;47.00;;;;;;4940728;28;45127;-70
2022/04/30 16:02:42;;;;;;;1.60;1.50;;;21.80;47.00;;;;;;4925610;28;45453;-69
2022/04/30 16:05:08;;;;;;;2.10;1.90;;;21.80;47.00;;;;;;4970789;28;44919;-69
2022/04/30 16:07:36;;;;;;;1.52;1.42;;;21.80;47.00;;;;;;4973907;28;44981;-69
2022/04/30 16:10:03;;;;;;;1.83;1.60;;;21.80;47.00;;;;;;4934339;28;45321;-69
2022/04/30 16:12:28;;;;;;;1.20;1.10;;;21.80;47.00;;;;;;4939862;28;45276;-69
2022/04/30 16:14:55;;;;;;;1.50;1.40;;;21.80;47.10;;;;;;4938339;28;45285;-70
2022/04/30 16:17:20;;;;;;;1.30;1.20;;;21.80;47.00;;;;;;4952270;28;45258;-69
2022/04/30 16:19:46;;;;;;;1.52;1.42;;;21.80;47.10;;;;;;4935685;28;45322;-69
2022/04/30 16:22:11;;;;;;;1.60;1.50;;;21.80;47.10;;;;;;4957045;28;44741;-69
2022/04/30 16:24:38;;;;;;;1.65;1.55;;;21.80;47.10;;;;;;4952910;28;44751;-69
2022/04/30 16:27:04;;;;;;;1.27;1.17;;;21.80;47.10;;;;;;4938834;28;45177;-70
2022/04/30 16:29:30;;;;;;;2.05;1.65;;;21.80;47.10;;;;;;4954331;28;46220;-69
2022/04/30 16:31:55;;;;;;;1.45;1.35;;;21.80;47.10;;;;;;4974908;28;45033;-68
2022/04/30 16:34:22;;;;;;;2.38;1.70;;;21.80;47.20;;;;;;4956612;28;44967;-68